sensor_id;sensor_type;location;lat;lon;timestamp;P1;durP1;ratioP1;P2;durP2;ratioP2
5363;SDS011;2705;41.410;2.160;2022-10-19T00:01:39;43.87;;;21.73;;
5363;SDS011;2705;41.410;2.160;2022-10-19T00:04:08;48.57;;;21.27;;
5363;SDS011;2705;41.410;2.160;2022-10-19T00:06:38;51.77;;;20.03;;
5363;SDS011;2705;41.410;2.160;2022-10-19T00:09:09;49.57;;;20.90;;
5363;SDS011;2705;41.410;2.160;2022-10-19T00:11:41;46.77;;;22.67;;
5363;SDS011;2705;41.410;2.160;2022-10-19T00:14:13;55.53;;;21.33;;
5363;SDS011;2705;41.410;2.160;2022-10-19T00:16:47;44.43;;;20.40;;
5363;SDS011;2705;41.410;2.160;2022-10-19T00:19:20;56.90;;;21.50;;
5363;SDS011;2705;41.410;2.160;2022-10-19T00:21:51;50.73;;;20.37;;
5363;SDS011;2705;41.410;2.160;2022-10-19T00:24:21;49.77;;;20.73;;
5363;SDS011;2705;41.410;2.160;2022-10-19T00:26:50;51.97;;;21.93;;
5363;SDS011;2705;41.410;2.160;2022-10-19T00:29:19;40.57;;;20.00;;
5363;SDS011;2705;41.410;2.160;2022-10-19T00:31:49;58.83;;;18.80;;
5363;SDS011;2705;41.410;2.160;2022-10-19T00:34:19;44.97;;;20.30;;
5363;SDS011;2705;41.410;2.160;2022-10-19T00:36:47;51.17;;;20.67;;
5363;SDS011;2705;41.410;2.160;2022-10-19T00:39:17;50.63;;;18.90;;
5363;SDS011;2705;41.410;2.160;2022-10-19T00:41:47;41.97;;;20.00;;
5363;SDS011;2705;41.410;2.160;2022-10-19T00:47:25;46.03;;;20.23;;
5363;SDS011;2705;41.410;2.160;2022-10-19T00:49:55;41.87;;;20.20;;
5363;SDS011;2705;41.410;2.160;2022-10-19T00:52:26;46.13;;;19.53;;
5363;SDS011;2705;41.410;2.160;2022-10-19T00:54:56;45.97;;;20.87;;
5363;SDS011;2705;41.410;2.160;2022-10-19T00:57:28;41.67;;;21.17;;
5363;SDS011;2705;41.410;2.160;2022-10-19T00:59:59;41.00;;;20.43;;
5363;SDS011;2705;41.410;2.160;2022-10-19T01:02:32;50.67;;;19.53;;
5363;SDS011;2705;41.410;2.160;2022-10-19T01:05:02;46.70;;;19.93;;
5363;SDS011;2705;41.410;2.160;2022-10-19T01:07:32;51.63;;;20.60;;
5363;SDS011;2705;41.410;2.160;2022-10-19T01:10:02;44.10;;;19.57;;
5363;SDS011;2705;41.410;2.160;2022-10-19T01:12:42;50.63;;;21.13;;
5363;SDS011;2705;41.410;2.160;2022-10-19T01:15:21;44.93;;;19.93;;
5363;SDS011;2705;41.410;2.160;2022-10-19T01:18:01;46.07;;;18.73;;
5363;SDS011;2705;41.410;2.160;2022-10-19T01:20:55;41.90;;;17.33;;
5363;SDS011;2705;41.410;2.160;2022-10-19T01:23:55;55.93;;;20.27;;
5363;SDS011;2705;41.410;2.160;2022-10-19T01:26:58;65.77;;;20.60;;
5363;SDS011;2705;41.410;2.160;2022-10-19T01:29:57;41.90;;;19.67;;
5363;SDS011;2705;41.410;2.160;2022-10-19T01:32:35;43.57;;;17.60;;
5363;SDS011;2705;41.410;2.160;2022-10-19T01:35:16;43.33;;;18.97;;
5363;SDS011;2705;41.410;2.160;2022-10-19T01:37:54;43.23;;;18.10;;
5363;SDS011;2705;41.410;2.160;2022-10-19T01:40:29;44.00;;;19.23;;
5363;SDS011;2705;41.410;2.160;2022-10-19T01:43:08;51.80;;;18.60;;
5363;SDS011;2705;41.410;2.160;2022-10-19T01:45:43;42.70;;;18.20;;
5363;SDS011;2705;41.410;2.160;2022-10-19T01:48:16;43.87;;;19.47;;
5363;SDS011;2705;41.410;2.160;2022-10-19T01:50:49;45.50;;;19.73;;
5363;SDS011;2705;41.410;2.160;2022-10-19T01:53:23;47.90;;;20.90;;
5363;SDS011;2705;41.410;2.160;2022-10-19T01:55:55;39.83;;;19.43;;
5363;SDS011;2705;41.410;2.160;2022-10-19T01:58:27;38.47;;;18.47;;
5363;SDS011;2705;41.410;2.160;2022-10-19T02:01:02;53.80;;;19.37;;
5363;SDS011;2705;41.410;2.160;2022-10-19T02:03:34;56.80;;;21.23;;
5363;SDS011;2705;41.410;2.160;2022-10-19T02:06:05;49.17;;;21.13;;
5363;SDS011;2705;41.410;2.160;2022-10-19T02:08:37;38.73;;;18.90;;
5363;SDS011;2705;41.410;2.160;2022-10-19T02:11:11;37.63;;;18.37;;
5363;SDS011;2705;41.410;2.160;2022-10-19T02:13:41;52.23;;;19.20;;
5363;SDS011;2705;41.410;2.160;2022-10-19T02:16:16;40.13;;;17.60;;
5363;SDS011;2705;41.410;2.160;2022-10-19T02:18:49;38.53;;;18.27;;
5363;SDS011;2705;41.410;2.160;2022-10-19T02:21:20;40.37;;;18.00;;
5363;SDS011;2705;41.410;2.160;2022-10-19T02:23:49;48.90;;;18.30;;
5363;SDS011;2705;41.410;2.160;2022-10-19T02:26:20;45.00;;;17.97;;
5363;SDS011;2705;41.410;2.160;2022-10-19T02:28:49;42.30;;;17.90;;
5363;SDS011;2705;41.410;2.160;2022-10-19T02:31:21;50.17;;;18.60;;
5363;SDS011;2705;41.410;2.160;2022-10-19T02:33:51;40.77;;;17.13;;
5363;SDS011;2705;41.410;2.160;2022-10-19T02:36:21;41.47;;;17.07;;
5363;SDS011;2705;41.410;2.160;2022-10-19T02:38:51;42.13;;;16.93;;
5363;SDS011;2705;41.410;2.160;2022-10-19T02:41:21;39.90;;;16.63;;
5363;SDS011;2705;41.410;2.160;2022-10-19T02:43:55;37.17;;;16.40;;
5363;SDS011;2705;41.410;2.160;2022-10-19T02:46:31;40.40;;;15.90;;
5363;SDS011;2705;41.410;2.160;2022-10-19T02:49:10;53.67;;;17.20;;
5363;SDS011;2705;41.410;2.160;2022-10-19T02:51:53;46.40;;;16.33;;
5363;SDS011;2705;41.410;2.160;2022-10-19T02:54:25;32.40;;;16.10;;
5363;SDS011;2705;41.410;2.160;2022-10-19T02:56:55;43.30;;;16.57;;
5363;SDS011;2705;41.410;2.160;2022-10-19T02:59:24;44.97;;;16.40;;
5363;SDS011;2705;41.410;2.160;2022-10-19T03:01:54;43.23;;;15.50;;
5363;SDS011;2705;41.410;2.160;2022-10-19T03:04:23;42.87;;;16.87;;
5363;SDS011;2705;41.410;2.160;2022-10-19T03:06:52;52.03;;;15.87;;
5363;SDS011;2705;41.410;2.160;2022-10-19T03:09:21;46.77;;;15.63;;
5363;SDS011;2705;41.410;2.160;2022-10-19T03:11:51;40.83;;;15.90;;
5363;SDS011;2705;41.410;2.160;2022-10-19T03:14:20;46.00;;;15.03;;
5363;SDS011;2705;41.410;2.160;2022-10-19T03:16:49;42.80;;;16.90;;
5363;SDS011;2705;41.410;2.160;2022-10-19T03:19:19;47.10;;;17.70;;
5363;SDS011;2705;41.410;2.160;2022-10-19T03:21:48;41.20;;;17.07;;
5363;SDS011;2705;41.410;2.160;2022-10-19T03:24:17;42.83;;;16.37;;
5363;SDS011;2705;41.410;2.160;2022-10-19T03:26:46;43.30;;;16.43;;
5363;SDS011;2705;41.410;2.160;2022-10-19T03:29:15;34.53;;;16.63;;
5363;SDS011;2705;41.410;2.160;2022-10-19T03:31:44;46.07;;;17.47;;
5363;SDS011;2705;41.410;2.160;2022-10-19T03:34:13;38.73;;;16.50;;
5363;SDS011;2705;41.410;2.160;2022-10-19T03:36:44;38.47;;;16.07;;
5363;SDS011;2705;41.410;2.160;2022-10-19T03:39:14;38.03;;;16.27;;
5363;SDS011;2705;41.410;2.160;2022-10-19T03:41:44;42.30;;;17.23;;
5363;SDS011;2705;41.410;2.160;2022-10-19T03:44:13;48.37;;;16.60;;
5363;SDS011;2705;41.410;2.160;2022-10-19T03:46:42;51.50;;;17.30;;
5363;SDS011;2705;41.410;2.160;2022-10-19T03:49:11;40.07;;;18.10;;
5363;SDS011;2705;41.410;2.160;2022-10-19T03:51:40;42.57;;;16.60;;
5363;SDS011;2705;41.410;2.160;2022-10-19T03:54:12;34.20;;;17.23;;
5363;SDS011;2705;41.410;2.160;2022-10-19T03:56:42;37.13;;;17.80;;
5363;SDS011;2705;41.410;2.160;2022-10-19T03:59:12;38.50;;;16.60;;
5363;SDS011;2705;41.410;2.160;2022-10-19T04:01:43;37.03;;;17.47;;
5363;SDS011;2705;41.410;2.160;2022-10-19T04:04:14;52.57;;;18.20;;
5363;SDS011;2705;41.410;2.160;2022-10-19T04:06:45;39.33;;;18.47;;
5363;SDS011;2705;41.410;2.160;2022-10-19T04:09:18;38.77;;;17.80;;
5363;SDS011;2705;41.410;2.160;2022-10-19T04:11:48;54.93;;;17.97;;
5363;SDS011;2705;41.410;2.160;2022-10-19T04:14:18;37.63;;;16.37;;
5363;SDS011;2705;41.410;2.160;2022-10-19T04:16:59;43.70;;;18.07;;
5363;SDS011;2705;41.410;2.160;2022-10-19T04:19:28;43.70;;;17.90;;
5363;SDS011;2705;41.410;2.160;2022-10-19T04:21:57;43.30;;;16.90;;
5363;SDS011;2705;41.410;2.160;2022-10-19T04:24:28;48.73;;;17.17;;
5363;SDS011;2705;41.410;2.160;2022-10-19T04:26:57;42.47;;;16.47;;
5363;SDS011;2705;41.410;2.160;2022-10-19T04:29:26;48.73;;;16.07;;
5363;SDS011;2705;41.410;2.160;2022-10-19T04:31:56;39.47;;;16.73;;
5363;SDS011;2705;41.410;2.160;2022-10-19T04:34:26;42.20;;;16.47;;
5363;SDS011;2705;41.410;2.160;2022-10-19T04:36:55;43.97;;;16.40;;
5363;SDS011;2705;41.410;2.160;2022-10-19T04:39:25;44.83;;;18.07;;
5363;SDS011;2705;41.410;2.160;2022-10-19T04:41:55;39.30;;;16.33;;
5363;SDS011;2705;41.410;2.160;2022-10-19T04:44:24;42.70;;;17.87;;
5363;SDS011;2705;41.410;2.160;2022-10-19T04:46:53;43.27;;;16.33;;
5363;SDS011;2705;41.410;2.160;2022-10-19T04:49:22;43.40;;;16.80;;
5363;SDS011;2705;41.410;2.160;2022-10-19T04:51:51;35.93;;;17.10;;
5363;SDS011;2705;41.410;2.160;2022-10-19T04:54:20;33.03;;;15.70;;
5363;SDS011;2705;41.410;2.160;2022-10-19T04:56:50;38.53;;;16.03;;
5363;SDS011;2705;41.410;2.160;2022-10-19T04:59:21;47.83;;;16.07;;
5363;SDS011;2705;41.410;2.160;2022-10-19T05:01:50;38.83;;;15.70;;
5363;SDS011;2705;41.410;2.160;2022-10-19T05:04:18;41.33;;;16.23;;
5363;SDS011;2705;41.410;2.160;2022-10-19T05:06:48;46.20;;;16.83;;
5363;SDS011;2705;41.410;2.160;2022-10-19T05:09:17;42.20;;;16.33;;
5363;SDS011;2705;41.410;2.160;2022-10-19T05:11:47;42.37;;;17.23;;
5363;SDS011;2705;41.410;2.160;2022-10-19T05:14:17;42.43;;;15.97;;
5363;SDS011;2705;41.410;2.160;2022-10-19T05:16:47;47.53;;;16.23;;
5363;SDS011;2705;41.410;2.160;2022-10-19T05:19:17;41.13;;;17.40;;
5363;SDS011;2705;41.410;2.160;2022-10-19T05:21:46;40.50;;;18.20;;
5363;SDS011;2705;41.410;2.160;2022-10-19T05:24:15;34.33;;;16.00;;
5363;SDS011;2705;41.410;2.160;2022-10-19T05:26:44;40.73;;;16.00;;
5363;SDS011;2705;41.410;2.160;2022-10-19T05:29:13;41.03;;;15.37;;
5363;SDS011;2705;41.410;2.160;2022-10-19T05:31:42;48.63;;;17.20;;
5363;SDS011;2705;41.410;2.160;2022-10-19T05:34:13;49.13;;;15.70;;
5363;SDS011;2705;41.410;2.160;2022-10-19T05:36:42;39.77;;;16.03;;
5363;SDS011;2705;41.410;2.160;2022-10-19T05:39:12;37.57;;;16.63;;
5363;SDS011;2705;41.410;2.160;2022-10-19T05:41:43;40.90;;;16.60;;
5363;SDS011;2705;41.410;2.160;2022-10-19T05:44:14;52.17;;;16.30;;
5363;SDS011;2705;41.410;2.160;2022-10-19T05:46:44;57.07;;;16.87;;
5363;SDS011;2705;41.410;2.160;2022-10-19T05:49:15;38.63;;;17.10;;
5363;SDS011;2705;41.410;2.160;2022-10-19T05:51:46;51.43;;;15.70;;
5363;SDS011;2705;41.410;2.160;2022-10-19T05:54:16;42.77;;;16.53;;
5363;SDS011;2705;41.410;2.160;2022-10-19T05:56:49;36.77;;;16.20;;
5363;SDS011;2705;41.410;2.160;2022-10-19T05:59:19;37.60;;;15.80;;
5363;SDS011;2705;41.410;2.160;2022-10-19T06:01:49;42.50;;;16.20;;
5363;SDS011;2705;41.410;2.160;2022-10-19T06:04:19;35.13;;;16.00;;
5363;SDS011;2705;41.410;2.160;2022-10-19T06:06:49;47.90;;;17.80;;
5363;SDS011;2705;41.410;2.160;2022-10-19T06:09:18;39.93;;;15.50;;
5363;SDS011;2705;41.410;2.160;2022-10-19T06:11:47;43.13;;;16.27;;
5363;SDS011;2705;41.410;2.160;2022-10-19T06:14:16;39.27;;;15.80;;
5363;SDS011;2705;41.410;2.160;2022-10-19T06:16:45;52.77;;;16.93;;
5363;SDS011;2705;41.410;2.160;2022-10-19T06:19:14;51.67;;;15.70;;
5363;SDS011;2705;41.410;2.160;2022-10-19T06:21:45;43.97;;;14.27;;
5363;SDS011;2705;41.410;2.160;2022-10-19T06:24:15;38.43;;;13.50;;
5363;SDS011;2705;41.410;2.160;2022-10-19T06:26:44;38.67;;;14.03;;
5363;SDS011;2705;41.410;2.160;2022-10-19T06:29:13;38.67;;;15.53;;
5363;SDS011;2705;41.410;2.160;2022-10-19T06:31:42;48.53;;;14.73;;
5363;SDS011;2705;41.410;2.160;2022-10-19T06:34:12;48.07;;;14.80;;
5363;SDS011;2705;41.410;2.160;2022-10-19T06:36:41;40.07;;;15.40;;
5363;SDS011;2705;41.410;2.160;2022-10-19T06:39:12;35.47;;;14.50;;
5363;SDS011;2705;41.410;2.160;2022-10-19T06:41:40;45.97;;;17.23;;
5363;SDS011;2705;41.410;2.160;2022-10-19T06:44:28;37.97;;;13.50;;
5363;SDS011;2705;41.410;2.160;2022-10-19T06:46:57;47.60;;;16.77;;
5363;SDS011;2705;41.410;2.160;2022-10-19T06:49:26;39.50;;;13.17;;
5363;SDS011;2705;41.410;2.160;2022-10-19T06:51:55;34.43;;;13.73;;
5363;SDS011;2705;41.410;2.160;2022-10-19T06:54:25;33.97;;;14.10;;
5363;SDS011;2705;41.410;2.160;2022-10-19T06:56:55;34.93;;;13.70;;
5363;SDS011;2705;41.410;2.160;2022-10-19T06:59:24;42.30;;;15.13;;
5363;SDS011;2705;41.410;2.160;2022-10-19T07:01:53;38.47;;;13.90;;
5363;SDS011;2705;41.410;2.160;2022-10-19T07:04:22;44.87;;;13.80;;
5363;SDS011;2705;41.410;2.160;2022-10-19T07:06:52;39.97;;;14.27;;
5363;SDS011;2705;41.410;2.160;2022-10-19T07:09:21;53.73;;;15.53;;
5363;SDS011;2705;41.410;2.160;2022-10-19T07:11:52;41.83;;;14.87;;
5363;SDS011;2705;41.410;2.160;2022-10-19T07:14:21;51.37;;;17.63;;
5363;SDS011;2705;41.410;2.160;2022-10-19T07:16:50;44.90;;;13.90;;
5363;SDS011;2705;41.410;2.160;2022-10-19T07:19:20;49.50;;;21.23;;
5363;SDS011;2705;41.410;2.160;2022-10-19T07:21:49;46.50;;;14.03;;
5363;SDS011;2705;41.410;2.160;2022-10-19T07:24:19;44.20;;;13.67;;
5363;SDS011;2705;41.410;2.160;2022-10-19T07:26:48;49.27;;;13.57;;
5363;SDS011;2705;41.410;2.160;2022-10-19T07:29:18;46.80;;;14.70;;
5363;SDS011;2705;41.410;2.160;2022-10-19T07:31:47;38.13;;;14.93;;
5363;SDS011;2705;41.410;2.160;2022-10-19T07:34:16;43.80;;;15.27;;
5363;SDS011;2705;41.410;2.160;2022-10-19T07:36:48;33.83;;;12.63;;
5363;SDS011;2705;41.410;2.160;2022-10-19T07:39:18;46.07;;;14.07;;
5363;SDS011;2705;41.410;2.160;2022-10-19T07:41:47;50.33;;;13.27;;
5363;SDS011;2705;41.410;2.160;2022-10-19T07:44:18;26.67;;;11.97;;
5363;SDS011;2705;41.410;2.160;2022-10-19T07:46:48;45.13;;;15.00;;
5363;SDS011;2705;41.410;2.160;2022-10-19T07:49:17;50.60;;;14.43;;
5363;SDS011;2705;41.410;2.160;2022-10-19T07:51:46;50.90;;;15.83;;
5363;SDS011;2705;41.410;2.160;2022-10-19T07:54:20;29.73;;;11.57;;
5363;SDS011;2705;41.410;2.160;2022-10-19T07:56:50;29.60;;;11.73;;
5363;SDS011;2705;41.410;2.160;2022-10-19T07:59:21;38.33;;;12.10;;
5363;SDS011;2705;41.410;2.160;2022-10-19T08:01:50;48.40;;;13.07;;
5363;SDS011;2705;41.410;2.160;2022-10-19T08:04:20;48.83;;;12.00;;
5363;SDS011;2705;41.410;2.160;2022-10-19T08:07:10;34.17;;;11.03;;
5363;SDS011;2705;41.410;2.160;2022-10-19T08:09:39;37.57;;;11.47;;
5363;SDS011;2705;41.410;2.160;2022-10-19T08:12:23;38.30;;;11.33;;
5363;SDS011;2705;41.410;2.160;2022-10-19T08:14:54;40.13;;;14.00;;
5363;SDS011;2705;41.410;2.160;2022-10-19T08:17:23;33.53;;;11.83;;
5363;SDS011;2705;41.410;2.160;2022-10-19T08:19:52;33.83;;;11.47;;
5363;SDS011;2705;41.410;2.160;2022-10-19T08:22:22;45.00;;;11.63;;
5363;SDS011;2705;41.410;2.160;2022-10-19T08:24:51;35.37;;;11.63;;
5363;SDS011;2705;41.410;2.160;2022-10-19T08:27:20;46.23;;;13.40;;
5363;SDS011;2705;41.410;2.160;2022-10-19T08:29:49;38.23;;;12.57;;
5363;SDS011;2705;41.410;2.160;2022-10-19T08:32:20;34.90;;;12.03;;
5363;SDS011;2705;41.410;2.160;2022-10-19T08:34:50;48.63;;;13.27;;
5363;SDS011;2705;41.410;2.160;2022-10-19T08:37:19;40.20;;;11.30;;
5363;SDS011;2705;41.410;2.160;2022-10-19T08:40:09;32.03;;;12.93;;
5363;SDS011;2705;41.410;2.160;2022-10-19T08:42:49;59.47;;;15.30;;
5363;SDS011;2705;41.410;2.160;2022-10-19T08:45:29;45.50;;;16.27;;
5363;SDS011;2705;41.410;2.160;2022-10-19T08:48:18;48.40;;;14.27;;
5363;SDS011;2705;41.410;2.160;2022-10-19T08:50:52;30.77;;;13.17;;
5363;SDS011;2705;41.410;2.160;2022-10-19T08:53:25;41.03;;;12.90;;
5363;SDS011;2705;41.410;2.160;2022-10-19T08:56:07;35.13;;;12.77;;
5363;SDS011;2705;41.410;2.160;2022-10-19T08:59:08;41.73;;;15.70;;
5363;SDS011;2705;41.410;2.160;2022-10-19T09:01:45;34.20;;;12.07;;
5363;SDS011;2705;41.410;2.160;2022-10-19T09:04:22;49.33;;;17.80;;
5363;SDS011;2705;41.410;2.160;2022-10-19T09:06:58;63.23;;;12.83;;
5363;SDS011;2705;41.410;2.160;2022-10-19T09:09:43;51.80;;;15.10;;
5363;SDS011;2705;41.410;2.160;2022-10-19T09:12:19;50.33;;;14.90;;
5363;SDS011;2705;41.410;2.160;2022-10-19T09:14:59;49.43;;;19.37;;
5363;SDS011;2705;41.410;2.160;2022-10-19T09:17:31;61.80;;;19.93;;
5363;SDS011;2705;41.410;2.160;2022-10-19T09:20:12;58.70;;;22.93;;
5363;SDS011;2705;41.410;2.160;2022-10-19T09:22:44;61.67;;;21.00;;
5363;SDS011;2705;41.410;2.160;2022-10-19T09:25:18;55.33;;;19.60;;
5363;SDS011;2705;41.410;2.160;2022-10-19T09:27:52;61.80;;;22.20;;
5363;SDS011;2705;41.410;2.160;2022-10-19T09:30:29;56.47;;;19.87;;
5363;SDS011;2705;41.410;2.160;2022-10-19T09:33:02;54.67;;;18.73;;
5363;SDS011;2705;41.410;2.160;2022-10-19T09:35:43;61.77;;;23.07;;
5363;SDS011;2705;41.410;2.160;2022-10-19T09:38:14;52.97;;;23.80;;
5363;SDS011;2705;41.410;2.160;2022-10-19T09:40:45;53.17;;;19.97;;
5363;SDS011;2705;41.410;2.160;2022-10-19T09:43:14;50.93;;;19.00;;
5363;SDS011;2705;41.410;2.160;2022-10-19T09:45:49;59.57;;;20.77;;
5363;SDS011;2705;41.410;2.160;2022-10-19T09:48:24;57.63;;;21.37;;
5363;SDS011;2705;41.410;2.160;2022-10-19T09:50:58;50.80;;;20.63;;
5363;SDS011;2705;41.410;2.160;2022-10-19T09:53:28;55.47;;;19.63;;
5363;SDS011;2705;41.410;2.160;2022-10-19T09:55:59;62.50;;;18.47;;
5363;SDS011;2705;41.410;2.160;2022-10-19T09:58:32;60.93;;;21.67;;
5363;SDS011;2705;41.410;2.160;2022-10-19T10:01:02;60.73;;;19.77;;
5363;SDS011;2705;41.410;2.160;2022-10-19T10:03:32;53.23;;;22.23;;
5363;SDS011;2705;41.410;2.160;2022-10-19T10:06:07;52.23;;;19.13;;
5363;SDS011;2705;41.410;2.160;2022-10-19T10:08:45;55.60;;;20.30;;
5363;SDS011;2705;41.410;2.160;2022-10-19T10:11:21;48.23;;;18.53;;
5363;SDS011;2705;41.410;2.160;2022-10-19T10:13:52;45.60;;;19.43;;
5363;SDS011;2705;41.410;2.160;2022-10-19T10:16:23;52.40;;;19.10;;
5363;SDS011;2705;41.410;2.160;2022-10-19T10:18:56;54.03;;;19.60;;
5363;SDS011;2705;41.410;2.160;2022-10-19T10:21:30;58.63;;;20.63;;
5363;SDS011;2705;41.410;2.160;2022-10-19T10:24:02;71.80;;;20.07;;
5363;SDS011;2705;41.410;2.160;2022-10-19T10:26:36;57.03;;;18.43;;
5363;SDS011;2705;41.410;2.160;2022-10-19T10:29:19;56.37;;;19.77;;
5363;SDS011;2705;41.410;2.160;2022-10-19T10:31:51;65.50;;;20.77;;
5363;SDS011;2705;41.410;2.160;2022-10-19T10:34:30;57.63;;;17.83;;
5363;SDS011;2705;41.410;2.160;2022-10-19T10:37:20;51.60;;;16.87;;
5363;SDS011;2705;41.410;2.160;2022-10-19T10:39:51;51.83;;;18.43;;
5363;SDS011;2705;41.410;2.160;2022-10-19T10:42:29;45.27;;;18.40;;
5363;SDS011;2705;41.410;2.160;2022-10-19T10:45:03;43.03;;;16.63;;
5363;SDS011;2705;41.410;2.160;2022-10-19T10:47:43;41.17;;;16.97;;
5363;SDS011;2705;41.410;2.160;2022-10-19T10:50:15;46.80;;;19.57;;
5363;SDS011;2705;41.410;2.160;2022-10-19T10:52:58;50.50;;;17.87;;
5363;SDS011;2705;41.410;2.160;2022-10-19T10:55:29;59.40;;;19.67;;
5363;SDS011;2705;41.410;2.160;2022-10-19T10:58:09;43.17;;;17.33;;
5363;SDS011;2705;41.410;2.160;2022-10-19T11:00:44;55.97;;;18.60;;
5363;SDS011;2705;41.410;2.160;2022-10-19T11:03:16;39.00;;;17.30;;
5363;SDS011;2705;41.410;2.160;2022-10-19T11:05:52;56.90;;;22.67;;
5363;SDS011;2705;41.410;2.160;2022-10-19T11:08:27;52.80;;;19.10;;
5363;SDS011;2705;41.410;2.160;2022-10-19T11:11:03;32.93;;;15.63;;
5363;SDS011;2705;41.410;2.160;2022-10-19T11:13:42;45.50;;;16.10;;
5363;SDS011;2705;41.410;2.160;2022-10-19T11:16:17;42.17;;;17.43;;
5363;SDS011;2705;41.410;2.160;2022-10-19T11:18:50;55.10;;;20.30;;
5363;SDS011;2705;41.410;2.160;2022-10-19T11:21:25;60.37;;;17.27;;
5363;SDS011;2705;41.410;2.160;2022-10-19T11:24:04;39.63;;;16.00;;
5363;SDS011;2705;41.410;2.160;2022-10-19T11:26:46;40.43;;;16.03;;
5363;SDS011;2705;41.410;2.160;2022-10-19T11:29:32;53.17;;;15.97;;
5363;SDS011;2705;41.410;2.160;2022-10-19T11:32:16;54.47;;;17.77;;
5363;SDS011;2705;41.410;2.160;2022-10-19T11:34:57;42.27;;;16.40;;
5363;SDS011;2705;41.410;2.160;2022-10-19T11:37:38;45.43;;;17.47;;
5363;SDS011;2705;41.410;2.160;2022-10-19T11:40:37;64.93;;;27.13;;
5363;SDS011;2705;41.410;2.160;2022-10-19T11:43:33;47.23;;;16.57;;
5363;SDS011;2705;41.410;2.160;2022-10-19T11:46:08;37.20;;;15.90;;
5363;SDS011;2705;41.410;2.160;2022-10-19T11:48:44;35.23;;;14.30;;
5363;SDS011;2705;41.410;2.160;2022-10-19T11:51:30;52.90;;;16.90;;
5363;SDS011;2705;41.410;2.160;2022-10-19T11:54:09;47.57;;;15.53;;
5363;SDS011;2705;41.410;2.160;2022-10-19T11:56:59;40.97;;;14.40;;
5363;SDS011;2705;41.410;2.160;2022-10-19T11:59:41;41.43;;;14.67;;
5363;SDS011;2705;41.410;2.160;2022-10-19T12:05:55;43.00;;;17.20;;
5363;SDS011;2705;41.410;2.160;2022-10-19T12:08:38;54.47;;;18.00;;
5363;SDS011;2705;41.410;2.160;2022-10-19T12:11:25;49.87;;;16.47;;
5363;SDS011;2705;41.410;2.160;2022-10-19T12:14:08;42.43;;;15.80;;
5363;SDS011;2705;41.410;2.160;2022-10-19T12:16:43;40.97;;;14.50;;
5363;SDS011;2705;41.410;2.160;2022-10-19T12:19:16;48.17;;;14.27;;
5363;SDS011;2705;41.410;2.160;2022-10-19T12:21:49;44.60;;;14.93;;
5363;SDS011;2705;41.410;2.160;2022-10-19T12:24:23;41.60;;;14.10;;
5363;SDS011;2705;41.410;2.160;2022-10-19T12:26:54;38.90;;;14.13;;
5363;SDS011;2705;41.410;2.160;2022-10-19T12:29:26;49.97;;;13.83;;
5363;SDS011;2705;41.410;2.160;2022-10-19T12:31:59;48.03;;;14.43;;
5363;SDS011;2705;41.410;2.160;2022-10-19T12:34:31;40.63;;;14.80;;
5363;SDS011;2705;41.410;2.160;2022-10-19T12:37:11;51.73;;;13.00;;
5363;SDS011;2705;41.410;2.160;2022-10-19T12:39:48;39.27;;;14.20;;
5363;SDS011;2705;41.410;2.160;2022-10-19T12:42:21;43.83;;;14.17;;
5363;SDS011;2705;41.410;2.160;2022-10-19T12:45:09;39.27;;;14.20;;
5363;SDS011;2705;41.410;2.160;2022-10-19T12:50:59;48.67;;;19.53;;
5363;SDS011;2705;41.410;2.160;2022-10-19T12:53:34;43.67;;;16.70;;
5363;SDS011;2705;41.410;2.160;2022-10-19T12:56:06;42.80;;;13.80;;
5363;SDS011;2705;41.410;2.160;2022-10-19T12:58:43;35.50;;;12.43;;
5363;SDS011;2705;41.410;2.160;2022-10-19T13:01:19;37.13;;;11.63;;
5363;SDS011;2705;41.410;2.160;2022-10-19T13:04:05;36.90;;;11.27;;
5363;SDS011;2705;41.410;2.160;2022-10-19T13:06:38;37.60;;;10.57;;
5363;SDS011;2705;41.410;2.160;2022-10-19T13:09:22;39.33;;;11.60;;
5363;SDS011;2705;41.410;2.160;2022-10-19T13:14:57;35.77;;;9.77;;
5363;SDS011;2705;41.410;2.160;2022-10-19T13:17:38;40.90;;;9.43;;
5363;SDS011;2705;41.410;2.160;2022-10-19T13:23:37;43.30;;;9.93;;
5363;SDS011;2705;41.410;2.160;2022-10-19T13:26:22;38.20;;;9.80;;
5363;SDS011;2705;41.410;2.160;2022-10-19T13:28:57;30.60;;;9.80;;
5363;SDS011;2705;41.410;2.160;2022-10-19T13:31:27;40.07;;;9.97;;
5363;SDS011;2705;41.410;2.160;2022-10-19T13:33:59;34.50;;;9.87;;
5363;SDS011;2705;41.410;2.160;2022-10-19T13:36:36;47.83;;;11.20;;
5363;SDS011;2705;41.410;2.160;2022-10-19T13:39:13;31.23;;;9.67;;
5363;SDS011;2705;41.410;2.160;2022-10-19T13:41:48;30.57;;;10.47;;
5363;SDS011;2705;41.410;2.160;2022-10-19T13:44:20;34.73;;;9.10;;
5363;SDS011;2705;41.410;2.160;2022-10-19T13:53:17;27.97;;;8.43;;
5363;SDS011;2705;41.410;2.160;2022-10-19T13:59:08;40.30;;;9.83;;
5363;SDS011;2705;41.410;2.160;2022-10-19T14:01:58;33.33;;;9.90;;
5363;SDS011;2705;41.410;2.160;2022-10-19T14:04:45;35.30;;;8.97;;
5363;SDS011;2705;41.410;2.160;2022-10-19T14:07:27;33.87;;;9.63;;
5363;SDS011;2705;41.410;2.160;2022-10-19T14:10:06;40.17;;;9.80;;
5363;SDS011;2705;41.410;2.160;2022-10-19T14:12:41;33.97;;;9.93;;
5363;SDS011;2705;41.410;2.160;2022-10-19T14:15:19;45.90;;;10.63;;
5363;SDS011;2705;41.410;2.160;2022-10-19T14:17:51;39.00;;;11.00;;
5363;SDS011;2705;41.410;2.160;2022-10-19T14:20:24;43.27;;;11.43;;
5363;SDS011;2705;41.410;2.160;2022-10-19T14:22:56;31.03;;;10.00;;
5363;SDS011;2705;41.410;2.160;2022-10-19T14:25:27;37.60;;;9.27;;
5363;SDS011;2705;41.410;2.160;2022-10-19T14:27:59;46.07;;;10.47;;
5363;SDS011;2705;41.410;2.160;2022-10-19T14:30:33;37.57;;;13.40;;
5363;SDS011;2705;41.410;2.160;2022-10-19T14:33:05;33.80;;;9.43;;
5363;SDS011;2705;41.410;2.160;2022-10-19T14:35:36;31.27;;;11.23;;
5363;SDS011;2705;41.410;2.160;2022-10-19T14:38:07;31.80;;;9.67;;
5363;SDS011;2705;41.410;2.160;2022-10-19T14:40:46;31.00;;;8.93;;
5363;SDS011;2705;41.410;2.160;2022-10-19T14:43:18;40.13;;;9.37;;
5363;SDS011;2705;41.410;2.160;2022-10-19T14:46:08;32.60;;;9.33;;
5363;SDS011;2705;41.410;2.160;2022-10-19T14:48:40;35.43;;;9.40;;
5363;SDS011;2705;41.410;2.160;2022-10-19T14:51:19;37.50;;;9.70;;
5363;SDS011;2705;41.410;2.160;2022-10-19T14:53:56;30.03;;;10.23;;
5363;SDS011;2705;41.410;2.160;2022-10-19T14:56:32;29.70;;;8.77;;
5363;SDS011;2705;41.410;2.160;2022-10-19T14:59:06;28.13;;;10.43;;
5363;SDS011;2705;41.410;2.160;2022-10-19T15:01:54;35.50;;;10.17;;
5363;SDS011;2705;41.410;2.160;2022-10-19T15:04:26;36.77;;;9.80;;
5363;SDS011;2705;41.410;2.160;2022-10-19T15:06:58;40.13;;;9.53;;
5363;SDS011;2705;41.410;2.160;2022-10-19T15:09:31;37.70;;;8.80;;
5363;SDS011;2705;41.410;2.160;2022-10-19T15:12:16;36.60;;;8.63;;
5363;SDS011;2705;41.410;2.160;2022-10-19T15:14:48;28.67;;;8.37;;
5363;SDS011;2705;41.410;2.160;2022-10-19T15:17:21;37.63;;;8.40;;
5363;SDS011;2705;41.410;2.160;2022-10-19T15:19:52;32.23;;;8.80;;
5363;SDS011;2705;41.410;2.160;2022-10-19T15:22:33;30.83;;;9.10;;
5363;SDS011;2705;41.410;2.160;2022-10-19T15:31:12;30.33;;;8.90;;
5363;SDS011;2705;41.410;2.160;2022-10-19T15:33:45;24.67;;;7.90;;
5363;SDS011;2705;41.410;2.160;2022-10-19T15:36:18;27.80;;;9.40;;
5363;SDS011;2705;41.410;2.160;2022-10-19T15:38:58;30.70;;;7.70;;
5363;SDS011;2705;41.410;2.160;2022-10-19T15:41:49;46.60;;;8.77;;
5363;SDS011;2705;41.410;2.160;2022-10-19T15:44:32;33.90;;;10.50;;
5363;SDS011;2705;41.410;2.160;2022-10-19T15:47:13;41.17;;;10.83;;
5363;SDS011;2705;41.410;2.160;2022-10-19T15:49:52;45.30;;;10.17;;
5363;SDS011;2705;41.410;2.160;2022-10-19T15:52:23;45.83;;;9.20;;
5363;SDS011;2705;41.410;2.160;2022-10-19T15:54:54;31.03;;;9.57;;
5363;SDS011;2705;41.410;2.160;2022-10-19T15:57:26;56.30;;;19.27;;
5363;SDS011;2705;41.410;2.160;2022-10-19T15:59:59;38.50;;;13.57;;
5363;SDS011;2705;41.410;2.160;2022-10-19T16:02:36;31.80;;;9.53;;